Weather at Laguna Compressor Station Landing Strip [CLOSED]

Public forecast

Using degrees Fahrenheit for public forecast. Weather courtesy of forecast.io.

Closest aviation weather report (METAR) to Laguna Compressor Station Landing Strip

Report is more than 2 hours old.

Closest report is Double Eagle II Airport, 27.0 nm (49.9 km) ENE.

2024/07/20 02:50 (retrieved 4 hours ago)

KAEG 200250Z 24003KT 10SM VCTS BKN110 23/15 A3024 RMK LTG IN VC AND DSNT ALQDS

Closest aviation forecast (TAF) to Laguna Compressor Station Landing Strip

Closest forecast is Double Eagle II Airport, 27.0 nm (49.9 km) ENE.

2024/07/20 06:45 (retrieved 9 minutes ago)

TAF KAEG 200542Z 2006/2106 23006KT P6SM BKN110 TEMPO 2006/2008 -SHRA BKN090 FM201800 19007KT P6SM SCT100 FM202200 03016G26KT P6SM VCSH BKN090 PROB30 2023/2103 VRB20G35KT 6SM -TSRA OVC070CB